sensor_id;sensor_type;location;lat;lon;timestamp;temperature;humidity
19168;DHT22;9716;53.114;18.040;2023-09-12T00:00:24;17.60;99.90
19168;DHT22;9716;53.114;18.040;2023-09-12T00:03:13;17.60;99.90
19168;DHT22;9716;53.114;18.040;2023-09-12T00:05:51;17.50;99.90
19168;DHT22;9716;53.114;18.040;2023-09-12T00:08:19;17.50;99.90
19168;DHT22;9716;53.114;18.040;2023-09-12T00:10:59;17.50;99.90
19168;DHT22;9716;53.114;18.040;2023-09-12T00:13:29;17.50;99.90
19168;DHT22;9716;53.114;18.040;2023-09-12T00:15:57;17.40;99.90
19168;DHT22;9716;53.114;18.040;2023-09-12T00:18:27;17.40;99.90
19168;DHT22;9716;53.114;18.040;2023-09-12T00:20:56;17.40;99.90
19168;DHT22;9716;53.114;18.040;2023-09-12T00:23:27;17.40;99.90
19168;DHT22;9716;53.114;18.040;2023-09-12T00:25:57;17.40;99.90
19168;DHT22;9716;53.114;18.040;2023-09-12T00:28:25;17.40;99.90
19168;DHT22;9716;53.114;18.040;2023-09-12T00:30:54;17.30;99.90
19168;DHT22;9716;53.114;18.040;2023-09-12T00:33:23;17.30;99.90
19168;DHT22;9716;53.114;18.040;2023-09-12T00:35:53;17.30;99.90
19168;DHT22;9716;53.114;18.040;2023-09-12T00:38:21;17.30;99.90
19168;DHT22;9716;53.114;18.040;2023-09-12T00:40:53;17.30;99.90
19168;DHT22;9716;53.114;18.040;2023-09-12T00:43:21;17.20;99.90
19168;DHT22;9716;53.114;18.040;2023-09-12T00:45:49;17.20;99.90
19168;DHT22;9716;53.114;18.040;2023-09-12T00:48:18;17.20;99.90
19168;DHT22;9716;53.114;18.040;2023-09-12T00:50:49;17.20;99.90
19168;DHT22;9716;53.114;18.040;2023-09-12T00:53:20;17.10;99.90
19168;DHT22;9716;53.114;18.040;2023-09-12T00:55:53;17.10;99.90
19168;DHT22;9716;53.114;18.040;2023-09-12T00:58:23;17.10;99.90
19168;DHT22;9716;53.114;18.040;2023-09-12T01:00:53;17.00;99.90
19168;DHT22;9716;53.114;18.040;2023-09-12T01:03:21;17.10;99.90
19168;DHT22;9716;53.114;18.040;2023-09-12T01:05:51;17.00;99.90
19168;DHT22;9716;53.114;18.040;2023-09-12T01:08:21;17.00;99.90
19168;DHT22;9716;53.114;18.040;2023-09-12T01:10:53;17.00;99.90
19168;DHT22;9716;53.114;18.040;2023-09-12T01:13:23;17.00;99.90
19168;DHT22;9716;53.114;18.040;2023-09-12T01:15:52;17.00;99.90
19168;DHT22;9716;53.114;18.040;2023-09-12T01:18:20;16.90;99.90
19168;DHT22;9716;53.114;18.040;2023-09-12T01:21:17;17.00;99.90
19168;DHT22;9716;53.114;18.040;2023-09-12T01:24:01;17.00;99.90
19168;DHT22;9716;53.114;18.040;2023-09-12T01:26:41;16.90;99.90
19168;DHT22;9716;53.114;18.040;2023-09-12T01:29:16;16.90;99.90
19168;DHT22;9716;53.114;18.040;2023-09-12T01:31:46;16.90;99.90
19168;DHT22;9716;53.114;18.040;2023-09-12T01:34:15;16.90;99.90
19168;DHT22;9716;53.114;18.040;2023-09-12T01:36:44;16.90;99.90
19168;DHT22;9716;53.114;18.040;2023-09-12T01:39:12;16.90;99.90
19168;DHT22;9716;53.114;18.040;2023-09-12T01:41:44;16.80;99.90
19168;DHT22;9716;53.114;18.040;2023-09-12T01:44:15;16.80;99.90
19168;DHT22;9716;53.114;18.040;2023-09-12T01:46:45;16.80;99.90
19168;DHT22;9716;53.114;18.040;2023-09-12T01:49:18;16.80;99.90
19168;DHT22;9716;53.114;18.040;2023-09-12T01:51:47;16.80;99.90
19168;DHT22;9716;53.114;18.040;2023-09-12T01:54:16;16.70;99.90
19168;DHT22;9716;53.114;18.040;2023-09-12T01:56:45;16.80;99.90
19168;DHT22;9716;53.114;18.040;2023-09-12T01:59:15;16.70;99.90
19168;DHT22;9716;53.114;18.040;2023-09-12T02:01:44;16.70;99.90
19168;DHT22;9716;53.114;18.040;2023-09-12T02:04:12;16.70;99.90
19168;DHT22;9716;53.114;18.040;2023-09-12T02:06:41;16.70;99.90
19168;DHT22;9716;53.114;18.040;2023-09-12T02:09:09;16.60;99.90
19168;DHT22;9716;53.114;18.040;2023-09-12T02:11:38;16.60;99.90
19168;DHT22;9716;53.114;18.040;2023-09-12T02:14:06;16.60;99.90
19168;DHT22;9716;53.114;18.040;2023-09-12T02:16:37;16.70;99.90
19168;DHT22;9716;53.114;18.040;2023-09-12T02:19:10;16.60;99.90
19168;DHT22;9716;53.114;18.040;2023-09-12T02:21:39;16.60;99.90
19168;DHT22;9716;53.114;18.040;2023-09-12T02:24:08;16.50;99.90
19168;DHT22;9716;53.114;18.040;2023-09-12T02:26:37;16.50;99.90
19168;DHT22;9716;53.114;18.040;2023-09-12T02:29:05;16.50;99.90
19168;DHT22;9716;53.114;18.040;2023-09-12T02:31:34;16.50;99.90
19168;DHT22;9716;53.114;18.040;2023-09-12T02:34:04;16.50;99.90
19168;DHT22;9716;53.114;18.040;2023-09-12T02:36:33;16.50;99.90
19168;DHT22;9716;53.114;18.040;2023-09-12T02:39:02;16.50;99.90
19168;DHT22;9716;53.114;18.040;2023-09-12T02:41:31;16.50;99.90
19168;DHT22;9716;53.114;18.040;2023-09-12T02:44:00;16.40;99.90
19168;DHT22;9716;53.114;18.040;2023-09-12T02:46:28;16.50;99.90
19168;DHT22;9716;53.114;18.040;2023-09-12T02:48:57;16.40;99.90
19168;DHT22;9716;53.114;18.040;2023-09-12T02:51:27;16.40;99.90
19168;DHT22;9716;53.114;18.040;2023-09-12T02:53:55;16.40;99.90
19168;DHT22;9716;53.114;18.040;2023-09-12T02:56:24;16.40;99.90
19168;DHT22;9716;53.114;18.040;2023-09-12T02:58:52;16.30;99.90
19168;DHT22;9716;53.114;18.040;2023-09-12T03:01:21;16.30;99.90
19168;DHT22;9716;53.114;18.040;2023-09-12T03:03:49;16.30;99.90
19168;DHT22;9716;53.114;18.040;2023-09-12T03:06:18;16.30;99.90
19168;DHT22;9716;53.114;18.040;2023-09-12T03:08:48;16.30;99.90
19168;DHT22;9716;53.114;18.040;2023-09-12T03:11:16;16.30;99.90
19168;DHT22;9716;53.114;18.040;2023-09-12T03:13:45;16.20;99.90
19168;DHT22;9716;53.114;18.040;2023-09-12T03:16:14;16.20;99.90
19168;DHT22;9716;53.114;18.040;2023-09-12T03:18:43;16.20;99.90
19168;DHT22;9716;53.114;18.040;2023-09-12T03:21:12;16.20;99.90
19168;DHT22;9716;53.114;18.040;2023-09-12T03:23:40;16.20;99.90
19168;DHT22;9716;53.114;18.040;2023-09-12T03:26:10;16.20;99.90
19168;DHT22;9716;53.114;18.040;2023-09-12T03:28:38;16.10;99.90
19168;DHT22;9716;53.114;18.040;2023-09-12T03:31:10;16.10;99.90
19168;DHT22;9716;53.114;18.040;2023-09-12T03:33:45;16.10;99.90
19168;DHT22;9716;53.114;18.040;2023-09-12T03:36:17;16.10;99.90
19168;DHT22;9716;53.114;18.040;2023-09-12T03:38:45;16.10;99.90
19168;DHT22;9716;53.114;18.040;2023-09-12T03:41:15;16.10;99.90
19168;DHT22;9716;53.114;18.040;2023-09-12T03:43:44;16.10;99.90
19168;DHT22;9716;53.114;18.040;2023-09-12T03:46:13;16.00;99.90
19168;DHT22;9716;53.114;18.040;2023-09-12T03:48:42;16.00;99.90
19168;DHT22;9716;53.114;18.040;2023-09-12T03:51:11;16.00;99.90
19168;DHT22;9716;53.114;18.040;2023-09-12T03:53:39;15.90;99.90
19168;DHT22;9716;53.114;18.040;2023-09-12T03:56:08;16.00;99.90
19168;DHT22;9716;53.114;18.040;2023-09-12T03:58:40;15.90;99.90
19168;DHT22;9716;53.114;18.040;2023-09-12T04:01:09;15.90;99.90
19168;DHT22;9716;53.114;18.040;2023-09-12T04:03:38;15.90;99.90
19168;DHT22;9716;53.114;18.040;2023-09-12T04:06:07;15.90;99.90
19168;DHT22;9716;53.114;18.040;2023-09-12T04:08:36;15.90;99.90
19168;DHT22;9716;53.114;18.040;2023-09-12T04:11:06;15.80;99.90
19168;DHT22;9716;53.114;18.040;2023-09-12T04:13:34;15.80;99.90
19168;DHT22;9716;53.114;18.040;2023-09-12T04:16:04;15.80;99.90
19168;DHT22;9716;53.114;18.040;2023-09-12T04:18:33;15.80;99.90
19168;DHT22;9716;53.114;18.040;2023-09-12T04:21:02;15.80;99.90
19168;DHT22;9716;53.114;18.040;2023-09-12T04:23:30;15.80;99.90
19168;DHT22;9716;53.114;18.040;2023-09-12T04:25:59;15.80;99.90
19168;DHT22;9716;53.114;18.040;2023-09-12T04:28:30;15.80;99.90
19168;DHT22;9716;53.114;18.040;2023-09-12T04:31:04;15.80;99.90
19168;DHT22;9716;53.114;18.040;2023-09-12T04:33:32;15.80;99.90
19168;DHT22;9716;53.114;18.040;2023-09-12T04:36:01;15.90;99.90
19168;DHT22;9716;53.114;18.040;2023-09-12T04:38:30;15.90;99.90
19168;DHT22;9716;53.114;18.040;2023-09-12T04:41:02;15.90;99.90
19168;DHT22;9716;53.114;18.040;2023-09-12T04:43:32;16.00;99.90
19168;DHT22;9716;53.114;18.040;2023-09-12T04:46:01;16.00;99.90
19168;DHT22;9716;53.114;18.040;2023-09-12T04:48:31;16.10;99.90
19168;DHT22;9716;53.114;18.040;2023-09-12T04:50:59;16.10;99.90
19168;DHT22;9716;53.114;18.040;2023-09-12T04:53:28;16.20;99.90
19168;DHT22;9716;53.114;18.040;2023-09-12T04:56:02;16.30;99.90
19168;DHT22;9716;53.114;18.040;2023-09-12T04:58:33;16.40;99.90
19168;DHT22;9716;53.114;18.040;2023-09-12T05:01:01;16.50;99.90
19168;DHT22;9716;53.114;18.040;2023-09-12T05:03:31;16.70;99.90
19168;DHT22;9716;53.114;18.040;2023-09-12T05:06:01;16.80;99.90
19168;DHT22;9716;53.114;18.040;2023-09-12T05:08:30;16.90;99.90
19168;DHT22;9716;53.114;18.040;2023-09-12T05:10:59;17.00;99.90
19168;DHT22;9716;53.114;18.040;2023-09-12T05:13:27;17.10;99.90
19168;DHT22;9716;53.114;18.040;2023-09-12T05:15:56;17.20;99.90
19168;DHT22;9716;53.114;18.040;2023-09-12T05:18:24;17.30;99.90
19168;DHT22;9716;53.114;18.040;2023-09-12T05:20:54;17.40;99.90
19168;DHT22;9716;53.114;18.040;2023-09-12T05:23:23;17.50;99.90
19168;DHT22;9716;53.114;18.040;2023-09-12T05:25:51;17.70;99.90
19168;DHT22;9716;53.114;18.040;2023-09-12T05:28:20;17.80;99.90
19168;DHT22;9716;53.114;18.040;2023-09-12T05:30:48;18.00;99.90
19168;DHT22;9716;53.114;18.040;2023-09-12T05:33:17;18.10;99.90
19168;DHT22;9716;53.114;18.040;2023-09-12T05:35:46;18.30;99.90
19168;DHT22;9716;53.114;18.040;2023-09-12T05:38:15;18.50;99.90
19168;DHT22;9716;53.114;18.040;2023-09-12T05:40:44;18.80;99.90
19168;DHT22;9716;53.114;18.040;2023-09-12T05:43:12;19.00;99.90
19168;DHT22;9716;53.114;18.040;2023-09-12T05:45:44;19.40;99.90
19168;DHT22;9716;53.114;18.040;2023-09-12T05:48:15;19.70;99.90
19168;DHT22;9716;53.114;18.040;2023-09-12T05:50:44;20.10;99.90
19168;DHT22;9716;53.114;18.040;2023-09-12T05:53:12;20.40;99.90
19168;DHT22;9716;53.114;18.040;2023-09-12T05:55:43;20.80;99.90
19168;DHT22;9716;53.114;18.040;2023-09-12T05:58:12;21.20;99.90
19168;DHT22;9716;53.114;18.040;2023-09-12T06:00:40;21.50;99.90
19168;DHT22;9716;53.114;18.040;2023-09-12T06:03:09;21.90;99.90
19168;DHT22;9716;53.114;18.040;2023-09-12T06:05:38;22.30;99.90
19168;DHT22;9716;53.114;18.040;2023-09-12T06:08:06;22.60;99.90
19168;DHT22;9716;53.114;18.040;2023-09-12T06:10:35;22.80;99.90
19168;DHT22;9716;53.114;18.040;2023-09-12T06:13:05;23.10;99.90
19168;DHT22;9716;53.114;18.040;2023-09-12T06:15:33;23.40;99.90
19168;DHT22;9716;53.114;18.040;2023-09-12T06:18:03;23.70;99.90
19168;DHT22;9716;53.114;18.040;2023-09-12T06:20:32;23.90;99.90
19168;DHT22;9716;53.114;18.040;2023-09-12T06:23:04;24.20;99.90
19168;DHT22;9716;53.114;18.040;2023-09-12T06:25:33;24.50;99.90
19168;DHT22;9716;53.114;18.040;2023-09-12T06:28:02;24.70;99.90
19168;DHT22;9716;53.114;18.040;2023-09-12T06:30:33;25.00;99.90
19168;DHT22;9716;53.114;18.040;2023-09-12T06:33:01;25.20;99.90
19168;DHT22;9716;53.114;18.040;2023-09-12T06:35:30;25.40;99.90
19168;DHT22;9716;53.114;18.040;2023-09-12T06:37:59;25.70;99.90
19168;DHT22;9716;53.114;18.040;2023-09-12T06:40:28;25.90;99.90
19168;DHT22;9716;53.114;18.040;2023-09-12T06:42:56;26.20;99.90
19168;DHT22;9716;53.114;18.040;2023-09-12T06:45:25;26.40;99.90
19168;DHT22;9716;53.114;18.040;2023-09-12T06:47:55;26.60;99.90
19168;DHT22;9716;53.114;18.040;2023-09-12T06:50:23;26.80;99.90
19168;DHT22;9716;53.114;18.040;2023-09-12T06:52:57;26.90;99.90
19168;DHT22;9716;53.114;18.040;2023-09-12T06:55:25;27.20;99.90
19168;DHT22;9716;53.114;18.040;2023-09-12T06:57:54;27.40;99.90
19168;DHT22;9716;53.114;18.040;2023-09-12T07:00:22;27.60;99.90
19168;DHT22;9716;53.114;18.040;2023-09-12T07:02:51;27.80;99.90
19168;DHT22;9716;53.114;18.040;2023-09-12T07:05:22;28.00;99.90
19168;DHT22;9716;53.114;18.040;2023-09-12T07:07:50;28.20;99.80
19168;DHT22;9716;53.114;18.040;2023-09-12T07:10:19;28.50;99.10
19168;DHT22;9716;53.114;18.040;2023-09-12T07:12:52;28.70;98.30
19168;DHT22;9716;53.114;18.040;2023-09-12T07:15:21;29.00;97.60
19168;DHT22;9716;53.114;18.040;2023-09-12T07:17:49;29.20;96.90
19168;DHT22;9716;53.114;18.040;2023-09-12T07:20:18;29.50;96.20
19168;DHT22;9716;53.114;18.040;2023-09-12T07:22:48;29.70;95.50
19168;DHT22;9716;53.114;18.040;2023-09-12T07:25:17;29.90;94.90
19168;DHT22;9716;53.114;18.040;2023-09-12T07:27:46;30.10;94.30
19168;DHT22;9716;53.114;18.040;2023-09-12T07:30:15;30.30;93.70
19168;DHT22;9716;53.114;18.040;2023-09-12T07:32:43;30.50;93.10
19168;DHT22;9716;53.114;18.040;2023-09-12T07:35:12;30.70;92.70
19168;DHT22;9716;53.114;18.040;2023-09-12T07:37:40;30.80;92.20
19168;DHT22;9716;53.114;18.040;2023-09-12T07:40:11;31.00;91.90
19168;DHT22;9716;53.114;18.040;2023-09-12T07:42:40;31.10;91.50
19168;DHT22;9716;53.114;18.040;2023-09-12T07:45:10;31.20;91.10
19168;DHT22;9716;53.114;18.040;2023-09-12T07:47:39;31.40;90.70
19168;DHT22;9716;53.114;18.040;2023-09-12T07:50:08;31.50;90.30
19168;DHT22;9716;53.114;18.040;2023-09-12T07:52:37;31.70;89.90
19168;DHT22;9716;53.114;18.040;2023-09-12T07:55:07;31.90;89.10
19168;DHT22;9716;53.114;18.040;2023-09-12T07:57:37;32.10;88.20
19168;DHT22;9716;53.114;18.040;2023-09-12T08:00:07;32.20;87.40
19168;DHT22;9716;53.114;18.040;2023-09-12T08:02:38;32.30;87.00
19168;DHT22;9716;53.114;18.040;2023-09-12T08:05:07;32.40;86.40
19168;DHT22;9716;53.114;18.040;2023-09-12T08:07:36;32.50;85.80
19168;DHT22;9716;53.114;18.040;2023-09-12T08:10:06;32.70;85.20
19168;DHT22;9716;53.114;18.040;2023-09-12T08:12:36;32.80;84.40
19168;DHT22;9716;53.114;18.040;2023-09-12T08:15:08;32.90;84.10
19168;DHT22;9716;53.114;18.040;2023-09-12T08:17:38;32.90;83.50
19168;DHT22;9716;53.114;18.040;2023-09-12T08:20:08;33.00;83.40
19168;DHT22;9716;53.114;18.040;2023-09-12T08:22:38;33.00;83.20
19168;DHT22;9716;53.114;18.040;2023-09-12T08:25:07;33.00;83.00
19168;DHT22;9716;53.114;18.040;2023-09-12T08:27:35;33.10;81.60
19168;DHT22;9716;53.114;18.040;2023-09-12T08:30:07;33.10;81.80
19168;DHT22;9716;53.114;18.040;2023-09-12T08:32:36;33.10;82.10
19168;DHT22;9716;53.114;18.040;2023-09-12T08:35:07;33.00;81.90
19168;DHT22;9716;53.114;18.040;2023-09-12T08:37:35;33.10;82.00
19168;DHT22;9716;53.114;18.040;2023-09-12T08:40:05;33.10;81.60
19168;DHT22;9716;53.114;18.040;2023-09-12T08:42:39;33.30;81.10
19168;DHT22;9716;53.114;18.040;2023-09-12T08:45:12;33.40;80.10
19168;DHT22;9716;53.114;18.040;2023-09-12T08:47:43;33.40;79.70
19168;DHT22;9716;53.114;18.040;2023-09-12T08:50:13;33.50;79.80
19168;DHT22;9716;53.114;18.040;2023-09-12T08:52:45;33.40;79.60
19168;DHT22;9716;53.114;18.040;2023-09-12T08:55:33;33.50;79.20
19168;DHT22;9716;53.114;18.040;2023-09-12T08:58:04;33.50;78.80
19168;DHT22;9716;53.114;18.040;2023-09-12T09:00:36;33.60;78.20
19168;DHT22;9716;53.114;18.040;2023-09-12T09:03:05;33.60;77.30
19168;DHT22;9716;53.114;18.040;2023-09-12T09:05:35;33.60;74.40
19168;DHT22;9716;53.114;18.040;2023-09-12T09:08:06;33.60;74.00
19168;DHT22;9716;53.114;18.040;2023-09-12T09:10:34;33.50;75.50
19168;DHT22;9716;53.114;18.040;2023-09-12T09:13:15;33.40;75.90
19168;DHT22;9716;53.114;18.040;2023-09-12T09:15:45;33.40;74.50
19168;DHT22;9716;53.114;18.040;2023-09-12T09:18:14;33.40;74.60
19168;DHT22;9716;53.114;18.040;2023-09-12T09:20:43;33.30;74.70
19168;DHT22;9716;53.114;18.040;2023-09-12T09:23:16;33.30;74.70
19168;DHT22;9716;53.114;18.040;2023-09-12T09:25:52;33.30;75.00
19168;DHT22;9716;53.114;18.040;2023-09-12T09:28:21;33.30;75.10
19168;DHT22;9716;53.114;18.040;2023-09-12T09:30:52;33.30;75.30
19168;DHT22;9716;53.114;18.040;2023-09-12T09:33:22;33.30;74.80
19168;DHT22;9716;53.114;18.040;2023-09-12T09:36:02;33.30;73.70
19168;DHT22;9716;53.114;18.040;2023-09-12T09:38:30;33.30;73.70
19168;DHT22;9716;53.114;18.040;2023-09-12T09:40:59;33.20;72.60
19168;DHT22;9716;53.114;18.040;2023-09-12T09:43:27;32.90;73.00
19168;DHT22;9716;53.114;18.040;2023-09-12T09:46:00;32.70;74.10
19168;DHT22;9716;53.114;18.040;2023-09-12T09:48:30;32.50;73.70
19168;DHT22;9716;53.114;18.040;2023-09-12T09:51:05;32.30;74.40
19168;DHT22;9716;53.114;18.040;2023-09-12T09:53:33;32.10;74.60
19168;DHT22;9716;53.114;18.040;2023-09-12T09:56:08;32.00;75.00
19168;DHT22;9716;53.114;18.040;2023-09-12T09:58:45;31.90;74.50
19168;DHT22;9716;53.114;18.040;2023-09-12T10:01:19;31.90;74.60
19168;DHT22;9716;53.114;18.040;2023-09-12T10:03:49;31.70;75.00
19168;DHT22;9716;53.114;18.040;2023-09-12T10:06:19;31.60;74.10
19168;DHT22;9716;53.114;18.040;2023-09-12T10:08:52;31.40;74.40
19168;DHT22;9716;53.114;18.040;2023-09-12T10:11:22;31.30;74.60
19168;DHT22;9716;53.114;18.040;2023-09-12T10:13:54;31.20;74.40
19168;DHT22;9716;53.114;18.040;2023-09-12T10:16:28;31.10;74.40
19168;DHT22;9716;53.114;18.040;2023-09-12T10:18:59;31.00;74.40
19168;DHT22;9716;53.114;18.040;2023-09-12T10:21:34;31.00;75.30
19168;DHT22;9716;53.114;18.040;2023-09-12T10:24:03;31.10;75.40
19168;DHT22;9716;53.114;18.040;2023-09-12T10:26:34;31.10;75.10
19168;DHT22;9716;53.114;18.040;2023-09-12T10:29:03;31.30;75.10
19168;DHT22;9716;53.114;18.040;2023-09-12T10:31:34;31.30;75.10
19168;DHT22;9716;53.114;18.040;2023-09-12T10:34:04;31.40;75.30
19168;DHT22;9716;53.114;18.040;2023-09-12T10:36:38;31.50;75.10
19168;DHT22;9716;53.114;18.040;2023-09-12T10:39:09;31.50;74.90
19168;DHT22;9716;53.114;18.040;2023-09-12T10:41:39;31.60;74.80
19168;DHT22;9716;53.114;18.040;2023-09-12T10:44:11;31.70;74.70
19168;DHT22;9716;53.114;18.040;2023-09-12T10:46:45;31.70;74.30
19168;DHT22;9716;53.114;18.040;2023-09-12T10:49:14;31.70;74.70
19168;DHT22;9716;53.114;18.040;2023-09-12T10:51:45;31.70;74.70
19168;DHT22;9716;53.114;18.040;2023-09-12T10:54:16;31.70;74.30
19168;DHT22;9716;53.114;18.040;2023-09-12T10:57:02;31.60;74.40
19168;DHT22;9716;53.114;18.040;2023-09-12T10:59:31;31.60;74.10
19168;DHT22;9716;53.114;18.040;2023-09-12T11:02:28;31.50;74.20
19168;DHT22;9716;53.114;18.040;2023-09-12T11:04:57;31.50;73.30
19168;DHT22;9716;53.114;18.040;2023-09-12T11:07:30;31.50;74.90
19168;DHT22;9716;53.114;18.040;2023-09-12T11:10:21;31.50;73.60
19168;DHT22;9716;53.114;18.040;2023-09-12T11:12:52;31.50;73.60
19168;DHT22;9716;53.114;18.040;2023-09-12T11:15:22;31.40;73.80
19168;DHT22;9716;53.114;18.040;2023-09-12T11:18:06;31.40;73.80
19168;DHT22;9716;53.114;18.040;2023-09-12T11:20:52;31.30;73.60
19168;DHT22;9716;53.114;18.040;2023-09-12T11:23:21;31.30;73.60
19168;DHT22;9716;53.114;18.040;2023-09-12T11:26:02;31.30;73.20
19168;DHT22;9716;53.114;18.040;2023-09-12T11:28:32;31.20;74.20
19168;DHT22;9716;53.114;18.040;2023-09-12T11:31:00;31.20;74.40
19168;DHT22;9716;53.114;18.040;2023-09-12T11:33:32;31.10;74.50
19168;DHT22;9716;53.114;18.040;2023-09-12T11:36:02;31.10;74.30
19168;DHT22;9716;53.114;18.040;2023-09-12T11:38:32;31.10;74.30
19168;DHT22;9716;53.114;18.040;2023-09-12T11:41:01;31.10;74.00
19168;DHT22;9716;53.114;18.040;2023-09-12T11:43:30;31.10;74.20
19168;DHT22;9716;53.114;18.040;2023-09-12T11:46:00;31.00;74.40
19168;DHT22;9716;53.114;18.040;2023-09-12T11:48:32;30.90;73.80
19168;DHT22;9716;53.114;18.040;2023-09-12T11:51:00;30.90;74.40
19168;DHT22;9716;53.114;18.040;2023-09-12T11:53:31;30.80;74.00
19168;DHT22;9716;53.114;18.040;2023-09-12T11:56:02;30.70;74.30
19168;DHT22;9716;53.114;18.040;2023-09-12T11:58:31;30.70;75.20
19168;DHT22;9716;53.114;18.040;2023-09-12T12:00:59;30.60;74.30
19168;DHT22;9716;53.114;18.040;2023-09-12T12:03:28;30.50;74.40
19168;DHT22;9716;53.114;18.040;2023-09-12T12:05:58;30.50;74.60
19168;DHT22;9716;53.114;18.040;2023-09-12T12:08:27;30.40;73.50
19168;DHT22;9716;53.114;18.040;2023-09-12T12:10:59;30.40;73.50
19168;DHT22;9716;53.114;18.040;2023-09-12T12:13:29;30.40;73.10
19168;DHT22;9716;53.114;18.040;2023-09-12T12:15:57;30.30;73.00
19168;DHT22;9716;53.114;18.040;2023-09-12T12:18:26;30.20;73.30
19168;DHT22;9716;53.114;18.040;2023-09-12T12:20:55;30.20;73.50
19168;DHT22;9716;53.114;18.040;2023-09-12T12:23:26;30.10;73.30
19168;DHT22;9716;53.114;18.040;2023-09-12T12:25:54;30.00;73.60
19168;DHT22;9716;53.114;18.040;2023-09-12T12:28:23;30.00;73.80
19168;DHT22;9716;53.114;18.040;2023-09-12T12:30:52;29.90;73.90
19168;DHT22;9716;53.114;18.040;2023-09-12T12:33:23;29.90;74.00
19168;DHT22;9716;53.114;18.040;2023-09-12T12:36:11;29.90;74.10
19168;DHT22;9716;53.114;18.040;2023-09-12T12:38:41;29.80;74.10
19168;DHT22;9716;53.114;18.040;2023-09-12T12:41:31;29.80;74.40
19168;DHT22;9716;53.114;18.040;2023-09-12T12:44:17;29.70;74.40
19168;DHT22;9716;53.114;18.040;2023-09-12T12:46:49;29.70;74.40
19168;DHT22;9716;53.114;18.040;2023-09-12T12:49:18;29.60;74.60
19168;DHT22;9716;53.114;18.040;2023-09-12T12:51:47;29.60;74.60
19168;DHT22;9716;53.114;18.040;2023-09-12T12:54:22;29.50;74.40
19168;DHT22;9716;53.114;18.040;2023-09-12T12:56:50;29.40;74.00
19168;DHT22;9716;53.114;18.040;2023-09-12T12:59:20;29.40;73.90
19168;DHT22;9716;53.114;18.040;2023-09-12T13:01:50;29.30;73.90
19168;DHT22;9716;53.114;18.040;2023-09-12T13:04:20;29.30;73.90
19168;DHT22;9716;53.114;18.040;2023-09-12T13:06:49;29.20;73.70
19168;DHT22;9716;53.114;18.040;2023-09-12T13:09:19;29.20;73.60
19168;DHT22;9716;53.114;18.040;2023-09-12T13:11:47;29.10;73.40
19168;DHT22;9716;53.114;18.040;2023-09-12T13:14:16;29.10;73.50
19168;DHT22;9716;53.114;18.040;2023-09-12T13:16:46;29.10;73.40
19168;DHT22;9716;53.114;18.040;2023-09-12T13:19:15;29.00;73.40
19168;DHT22;9716;53.114;18.040;2023-09-12T13:21:43;29.00;73.40
19168;DHT22;9716;53.114;18.040;2023-09-12T13:24:12;29.00;73.60
19168;DHT22;9716;53.114;18.040;2023-09-12T13:26:42;29.00;73.50
19168;DHT22;9716;53.114;18.040;2023-09-12T13:29:11;29.10;72.00
19168;DHT22;9716;53.114;18.040;2023-09-12T13:31:40;29.40;71.80
19168;DHT22;9716;53.114;18.040;2023-09-12T13:34:09;29.80;72.00
19168;DHT22;9716;53.114;18.040;2023-09-12T13:36:37;30.10;71.80
19168;DHT22;9716;53.114;18.040;2023-09-12T13:39:07;30.40;71.70
19168;DHT22;9716;53.114;18.040;2023-09-12T13:41:35;30.70;72.40
19168;DHT22;9716;53.114;18.040;2023-09-12T13:44:05;31.00;71.40
19168;DHT22;9716;53.114;18.040;2023-09-12T13:46:34;31.20;71.20
19168;DHT22;9716;53.114;18.040;2023-09-12T13:49:02;31.40;71.10
19168;DHT22;9716;53.114;18.040;2023-09-12T13:51:31;31.60;71.10
19168;DHT22;9716;53.114;18.040;2023-09-12T13:54:00;31.70;70.80
19168;DHT22;9716;53.114;18.040;2023-09-12T13:56:28;31.80;70.30
19168;DHT22;9716;53.114;18.040;2023-09-12T13:58:57;31.80;70.00
19168;DHT22;9716;53.114;18.040;2023-09-12T14:01:27;31.90;69.80
19168;DHT22;9716;53.114;18.040;2023-09-12T14:04:02;31.90;69.80
19168;DHT22;9716;53.114;18.040;2023-09-12T14:06:33;31.90;69.80
19168;DHT22;9716;53.114;18.040;2023-09-12T14:09:02;31.90;69.90
19168;DHT22;9716;53.114;18.040;2023-09-12T14:11:31;31.90;69.80
19168;DHT22;9716;53.114;18.040;2023-09-12T14:14:03;31.90;68.50
19168;DHT22;9716;53.114;18.040;2023-09-12T14:16:36;31.70;67.70
19168;DHT22;9716;53.114;18.040;2023-09-12T14:19:05;31.70;67.80
19168;DHT22;9716;53.114;18.040;2023-09-12T14:21:35;31.70;68.00
19168;DHT22;9716;53.114;18.040;2023-09-12T14:24:05;31.70;68.40
19168;DHT22;9716;53.114;18.040;2023-09-12T14:26:34;31.60;68.50
19168;DHT22;9716;53.114;18.040;2023-09-12T14:29:05;31.50;68.70
19168;DHT22;9716;53.114;18.040;2023-09-12T14:31:36;31.50;68.90
19168;DHT22;9716;53.114;18.040;2023-09-12T14:34:05;31.50;69.20
19168;DHT22;9716;53.114;18.040;2023-09-12T14:36:35;31.40;69.30
19168;DHT22;9716;53.114;18.040;2023-09-12T14:39:04;31.40;69.40
19168;DHT22;9716;53.114;18.040;2023-09-12T14:41:35;31.30;69.60
19168;DHT22;9716;53.114;18.040;2023-09-12T14:44:04;31.30;69.80
19168;DHT22;9716;53.114;18.040;2023-09-12T14:46:33;31.30;70.10
19168;DHT22;9716;53.114;18.040;2023-09-12T14:49:03;31.30;71.00
19168;DHT22;9716;53.114;18.040;2023-09-12T14:51:31;31.20;70.40
19168;DHT22;9716;53.114;18.040;2023-09-12T14:54:02;31.20;70.80
19168;DHT22;9716;53.114;18.040;2023-09-12T14:56:30;31.10;71.00
19168;DHT22;9716;53.114;18.040;2023-09-12T14:59:00;31.10;71.10
19168;DHT22;9716;53.114;18.040;2023-09-12T15:01:28;31.00;71.30
19168;DHT22;9716;53.114;18.040;2023-09-12T15:03:57;30.90;71.60
19168;DHT22;9716;53.114;18.040;2023-09-12T15:06:27;30.90;72.00
19168;DHT22;9716;53.114;18.040;2023-09-12T15:09:00;30.80;72.10
19168;DHT22;9716;53.114;18.040;2023-09-12T15:11:30;30.70;72.30
19168;DHT22;9716;53.114;18.040;2023-09-12T15:14:02;30.70;72.60
19168;DHT22;9716;53.114;18.040;2023-09-12T15:16:30;30.60;72.60
19168;DHT22;9716;53.114;18.040;2023-09-12T15:19:08;30.50;72.50
19168;DHT22;9716;53.114;18.040;2023-09-12T15:21:38;30.40;72.80
19168;DHT22;9716;53.114;18.040;2023-09-12T15:24:07;30.40;73.20
19168;DHT22;9716;53.114;18.040;2023-09-12T15:26:36;30.30;73.50
19168;DHT22;9716;53.114;18.040;2023-09-12T15:29:04;30.20;73.90
19168;DHT22;9716;53.114;18.040;2023-09-12T15:31:34;30.10;74.20
19168;DHT22;9716;53.114;18.040;2023-09-12T15:34:03;30.00;74.50
19168;DHT22;9716;53.114;18.040;2023-09-12T15:36:41;29.90;74.90
19168;DHT22;9716;53.114;18.040;2023-09-12T15:39:10;29.80;75.20
19168;DHT22;9716;53.114;18.040;2023-09-12T15:41:38;29.80;75.50
19168;DHT22;9716;53.114;18.040;2023-09-12T15:44:07;29.70;75.90
19168;DHT22;9716;53.114;18.040;2023-09-12T15:46:42;29.60;76.40
19168;DHT22;9716;53.114;18.040;2023-09-12T15:49:11;29.50;76.90